sensor_id;sensor_type;location;lat;lon;timestamp;P1;durP1;ratioP1;P2;durP2;ratioP2
8640;SDS011;4358;42.100;25.222;2023-11-18T00:00:08;6.43;;;5.60;;
8640;SDS011;4358;42.100;25.222;2023-11-18T00:02:39;6.70;;;5.70;;
8640;SDS011;4358;42.100;25.222;2023-11-18T00:05:07;8.90;;;7.03;;
8640;SDS011;4358;42.100;25.222;2023-11-18T00:07:34;10.37;;;8.10;;
8640;SDS011;4358;42.100;25.222;2023-11-18T00:10:01;6.90;;;6.10;;
8640;SDS011;4358;42.100;25.222;2023-11-18T00:12:29;6.47;;;5.60;;
8640;SDS011;4358;42.100;25.222;2023-11-18T00:14:56;9.67;;;6.37;;
8640;SDS011;4358;42.100;25.222;2023-11-18T00:17:23;8.63;;;6.57;;
8640;SDS011;4358;42.100;25.222;2023-11-18T00:19:51;9.53;;;7.53;;
8640;SDS011;4358;42.100;25.222;2023-11-18T00:22:18;9.37;;;7.20;;
8640;SDS011;4358;42.100;25.222;2023-11-18T00:24:46;11.27;;;7.60;;
8640;SDS011;4358;42.100;25.222;2023-11-18T00:27:13;12.07;;;8.47;;
8640;SDS011;4358;42.100;25.222;2023-11-18T00:29:40;7.77;;;6.67;;
8640;SDS011;4358;42.100;25.222;2023-11-18T00:32:09;7.87;;;6.87;;
8640;SDS011;4358;42.100;25.222;2023-11-18T00:34:36;9.93;;;7.53;;
8640;SDS011;4358;42.100;25.222;2023-11-18T00:37:04;12.30;;;8.90;;
8640;SDS011;4358;42.100;25.222;2023-11-18T00:39:32;11.53;;;7.53;;
8640;SDS011;4358;42.100;25.222;2023-11-18T00:41:59;9.07;;;7.67;;
8640;SDS011;4358;42.100;25.222;2023-11-18T00:44:26;9.60;;;6.80;;
8640;SDS011;4358;42.100;25.222;2023-11-18T00:46:53;6.90;;;6.20;;
8640;SDS011;4358;42.100;25.222;2023-11-18T00:49:22;9.20;;;5.77;;
8640;SDS011;4358;42.100;25.222;2023-11-18T00:51:51;7.67;;;6.77;;
8640;SDS011;4358;42.100;25.222;2023-11-18T00:54:19;7.10;;;6.30;;
8640;SDS011;4358;42.100;25.222;2023-11-18T00:56:46;7.10;;;6.10;;
8640;SDS011;4358;42.100;25.222;2023-11-18T00:59:13;6.97;;;5.70;;
8640;SDS011;4358;42.100;25.222;2023-11-18T01:01:40;7.63;;;6.10;;
8640;SDS011;4358;42.100;25.222;2023-11-18T01:04:08;10.13;;;6.70;;
8640;SDS011;4358;42.100;25.222;2023-11-18T01:06:35;7.33;;;5.50;;
8640;SDS011;4358;42.100;25.222;2023-11-18T01:09:02;6.03;;;5.43;;
8640;SDS011;4358;42.100;25.222;2023-11-18T01:11:30;7.53;;;6.23;;
8640;SDS011;4358;42.100;25.222;2023-11-18T01:13:57;6.17;;;5.57;;
8640;SDS011;4358;42.100;25.222;2023-11-18T01:16:24;8.27;;;6.60;;
8640;SDS011;4358;42.100;25.222;2023-11-18T01:18:51;7.90;;;6.33;;
8640;SDS011;4358;42.100;25.222;2023-11-18T01:21:19;8.53;;;6.73;;
8640;SDS011;4358;42.100;25.222;2023-11-18T01:23:47;7.70;;;6.40;;
8640;SDS011;4358;42.100;25.222;2023-11-18T01:26:14;11.00;;;6.67;;
8640;SDS011;4358;42.100;25.222;2023-11-18T01:28:42;8.10;;;6.23;;
8640;SDS011;4358;42.100;25.222;2023-11-18T01:31:10;6.77;;;5.77;;
8640;SDS011;4358;42.100;25.222;2023-11-18T01:33:37;5.77;;;5.27;;
8640;SDS011;4358;42.100;25.222;2023-11-18T01:36:05;7.27;;;5.70;;
8640;SDS011;4358;42.100;25.222;2023-11-18T01:38:34;7.87;;;6.10;;
8640;SDS011;4358;42.100;25.222;2023-11-18T01:41:03;9.07;;;7.43;;
8640;SDS011;4358;42.100;25.222;2023-11-18T01:43:31;7.93;;;5.57;;
8640;SDS011;4358;42.100;25.222;2023-11-18T01:45:59;7.50;;;6.00;;
8640;SDS011;4358;42.100;25.222;2023-11-18T01:48:30;7.60;;;6.47;;
8640;SDS011;4358;42.100;25.222;2023-11-18T01:50:58;8.07;;;5.97;;
8640;SDS011;4358;42.100;25.222;2023-11-18T01:53:28;7.83;;;6.17;;
8640;SDS011;4358;42.100;25.222;2023-11-18T01:55:55;10.20;;;6.67;;
8640;SDS011;4358;42.100;25.222;2023-11-18T01:58:24;9.73;;;6.50;;
8640;SDS011;4358;42.100;25.222;2023-11-18T02:00:52;7.93;;;6.50;;
8640;SDS011;4358;42.100;25.222;2023-11-18T02:03:21;9.10;;;7.07;;
8640;SDS011;4358;42.100;25.222;2023-11-18T02:05:48;8.10;;;6.87;;
8640;SDS011;4358;42.100;25.222;2023-11-18T02:08:16;8.33;;;7.10;;
8640;SDS011;4358;42.100;25.222;2023-11-18T02:10:45;8.00;;;6.47;;
8640;SDS011;4358;42.100;25.222;2023-11-18T02:13:19;7.47;;;6.13;;
8640;SDS011;4358;42.100;25.222;2023-11-18T02:15:52;8.67;;;6.13;;
8640;SDS011;4358;42.100;25.222;2023-11-18T02:18:24;7.83;;;6.30;;
8640;SDS011;4358;42.100;25.222;2023-11-18T02:20:53;6.77;;;5.87;;
8640;SDS011;4358;42.100;25.222;2023-11-18T02:23:22;5.73;;;4.57;;
8640;SDS011;4358;42.100;25.222;2023-11-18T02:25:52;4.27;;;3.87;;
8640;SDS011;4358;42.100;25.222;2023-11-18T02:28:20;4.97;;;4.33;;
8640;SDS011;4358;42.100;25.222;2023-11-18T02:30:47;4.83;;;4.20;;
8640;SDS011;4358;42.100;25.222;2023-11-18T02:33:18;3.93;;;3.33;;
8640;SDS011;4358;42.100;25.222;2023-11-18T02:35:49;3.03;;;2.73;;
8640;SDS011;4358;42.100;25.222;2023-11-18T02:38:22;1.30;;;1.20;;
8640;SDS011;4358;42.100;25.222;2023-11-18T02:40:56;1.27;;;1.17;;
8640;SDS011;4358;42.100;25.222;2023-11-18T02:43:30;1.23;;;1.13;;
8640;SDS011;4358;42.100;25.222;2023-11-18T02:45:57;1.30;;;1.00;;
8640;SDS011;4358;42.100;25.222;2023-11-18T02:48:26;0.90;;;0.90;;
8640;SDS011;4358;42.100;25.222;2023-11-18T02:50:53;0.90;;;0.90;;
8640;SDS011;4358;42.100;25.222;2023-11-18T02:53:20;1.20;;;1.10;;
8640;SDS011;4358;42.100;25.222;2023-11-18T02:55:47;1.03;;;1.00;;
8640;SDS011;4358;42.100;25.222;2023-11-18T02:58:18;1.03;;;1.00;;
8640;SDS011;4358;42.100;25.222;2023-11-18T03:00:45;1.10;;;1.00;;
8640;SDS011;4358;42.100;25.222;2023-11-18T03:03:13;1.00;;;1.00;;
8640;SDS011;4358;42.100;25.222;2023-11-18T03:05:40;1.10;;;1.00;;
8640;SDS011;4358;42.100;25.222;2023-11-18T03:08:07;0.80;;;0.80;;
8640;SDS011;4358;42.100;25.222;2023-11-18T03:10:34;1.07;;;1.00;;
8640;SDS011;4358;42.100;25.222;2023-11-18T03:13:02;1.20;;;0.90;;
8640;SDS011;4358;42.100;25.222;2023-11-18T03:15:30;1.23;;;0.83;;
8640;SDS011;4358;42.100;25.222;2023-11-18T03:17:57;0.60;;;0.60;;
8640;SDS011;4358;42.100;25.222;2023-11-18T03:20:24;1.00;;;0.90;;
8640;SDS011;4358;42.100;25.222;2023-11-18T03:22:51;0.60;;;0.60;;
8640;SDS011;4358;42.100;25.222;2023-11-18T03:25:18;1.83;;;0.90;;
8640;SDS011;4358;42.100;25.222;2023-11-18T03:27:47;0.60;;;0.60;;
8640;SDS011;4358;42.100;25.222;2023-11-18T03:30:14;0.50;;;0.50;;
8640;SDS011;4358;42.100;25.222;2023-11-18T03:32:43;1.00;;;0.80;;
8640;SDS011;4358;42.100;25.222;2023-11-18T03:35:10;0.70;;;0.70;;
8640;SDS011;4358;42.100;25.222;2023-11-18T03:37:37;0.53;;;0.53;;
8640;SDS011;4358;42.100;25.222;2023-11-18T03:40:07;0.60;;;0.60;;
8640;SDS011;4358;42.100;25.222;2023-11-18T03:42:34;0.60;;;0.60;;
8640;SDS011;4358;42.100;25.222;2023-11-18T03:45:02;1.47;;;0.60;;
8640;SDS011;4358;42.100;25.222;2023-11-18T03:47:30;0.87;;;0.60;;
8640;SDS011;4358;42.100;25.222;2023-11-18T03:50:00;1.20;;;0.80;;
8640;SDS011;4358;42.100;25.222;2023-11-18T03:52:27;0.53;;;0.53;;
8640;SDS011;4358;42.100;25.222;2023-11-18T03:54:54;0.47;;;0.47;;
8640;SDS011;4358;42.100;25.222;2023-11-18T03:57:21;0.70;;;0.70;;
8640;SDS011;4358;42.100;25.222;2023-11-18T03:59:48;1.00;;;0.90;;
8640;SDS011;4358;42.100;25.222;2023-11-18T04:02:15;2.37;;;0.90;;
8640;SDS011;4358;42.100;25.222;2023-11-18T04:04:42;0.70;;;0.70;;
8640;SDS011;4358;42.100;25.222;2023-11-18T04:07:10;0.60;;;0.60;;
8640;SDS011;4358;42.100;25.222;2023-11-18T04:09:37;0.60;;;0.60;;
8640;SDS011;4358;42.100;25.222;2023-11-18T04:12:06;1.07;;;0.50;;
8640;SDS011;4358;42.100;25.222;2023-11-18T04:14:34;1.53;;;0.80;;
8640;SDS011;4358;42.100;25.222;2023-11-18T04:17:01;0.43;;;0.43;;
8640;SDS011;4358;42.100;25.222;2023-11-18T04:19:29;0.97;;;0.70;;
8640;SDS011;4358;42.100;25.222;2023-11-18T04:21:56;0.63;;;0.63;;
8640;SDS011;4358;42.100;25.222;2023-11-18T04:24:24;0.93;;;0.80;;
8640;SDS011;4358;42.100;25.222;2023-11-18T04:26:51;0.73;;;0.70;;
8640;SDS011;4358;42.100;25.222;2023-11-18T04:29:18;0.70;;;0.70;;
8640;SDS011;4358;42.100;25.222;2023-11-18T04:31:46;1.43;;;1.00;;
8640;SDS011;4358;42.100;25.222;2023-11-18T04:34:13;0.80;;;0.80;;
8640;SDS011;4358;42.100;25.222;2023-11-18T04:36:41;0.60;;;0.60;;
8640;SDS011;4358;42.100;25.222;2023-11-18T04:39:08;0.87;;;0.87;;
8640;SDS011;4358;42.100;25.222;2023-11-18T04:41:38;0.73;;;0.73;;
8640;SDS011;4358;42.100;25.222;2023-11-18T04:44:05;0.50;;;0.50;;
8640;SDS011;4358;42.100;25.222;2023-11-18T04:46:32;0.83;;;0.83;;
8640;SDS011;4358;42.100;25.222;2023-11-18T04:48:59;0.80;;;0.80;;
8640;SDS011;4358;42.100;25.222;2023-11-18T04:51:27;0.80;;;0.80;;
8640;SDS011;4358;42.100;25.222;2023-11-18T04:53:53;0.60;;;0.60;;
8640;SDS011;4358;42.100;25.222;2023-11-18T04:56:22;0.67;;;0.67;;
8640;SDS011;4358;42.100;25.222;2023-11-18T04:58:50;0.67;;;0.67;;
8640;SDS011;4358;42.100;25.222;2023-11-18T05:01:17;0.60;;;0.60;;
8640;SDS011;4358;42.100;25.222;2023-11-18T05:03:44;0.83;;;0.83;;
8640;SDS011;4358;42.100;25.222;2023-11-18T05:06:11;0.67;;;0.63;;
8640;SDS011;4358;42.100;25.222;2023-11-18T05:08:38;1.80;;;0.70;;
8640;SDS011;4358;42.100;25.222;2023-11-18T05:11:05;1.50;;;0.73;;
8640;SDS011;4358;42.100;25.222;2023-11-18T05:13:32;1.00;;;0.90;;
8640;SDS011;4358;42.100;25.222;2023-11-18T05:16:01;0.60;;;0.60;;
8640;SDS011;4358;42.100;25.222;2023-11-18T05:18:29;0.90;;;0.90;;
8640;SDS011;4358;42.100;25.222;2023-11-18T05:21:01;0.70;;;0.70;;
8640;SDS011;4358;42.100;25.222;2023-11-18T05:23:30;2.93;;;1.10;;
8640;SDS011;4358;42.100;25.222;2023-11-18T05:25:57;1.10;;;1.00;;
8640;SDS011;4358;42.100;25.222;2023-11-18T05:28:24;0.80;;;0.80;;
8640;SDS011;4358;42.100;25.222;2023-11-18T05:30:51;1.10;;;1.00;;
8640;SDS011;4358;42.100;25.222;2023-11-18T05:33:22;1.10;;;1.00;;
8640;SDS011;4358;42.100;25.222;2023-11-18T05:35:50;1.20;;;1.10;;
8640;SDS011;4358;42.100;25.222;2023-11-18T05:38:17;1.07;;;1.00;;
8640;SDS011;4358;42.100;25.222;2023-11-18T05:40:47;1.13;;;1.03;;
8640;SDS011;4358;42.100;25.222;2023-11-18T05:43:21;1.27;;;1.17;;
8640;SDS011;4358;42.100;25.222;2023-11-18T05:45:50;1.20;;;1.10;;
8640;SDS011;4358;42.100;25.222;2023-11-18T05:48:37;1.47;;;0.93;;
8640;SDS011;4358;42.100;25.222;2023-11-18T05:51:05;0.90;;;0.90;;
8640;SDS011;4358;42.100;25.222;2023-11-18T05:53:32;1.23;;;1.13;;
8640;SDS011;4358;42.100;25.222;2023-11-18T05:55:59;1.57;;;1.40;;
8640;SDS011;4358;42.100;25.222;2023-11-18T05:58:26;1.10;;;1.00;;
8640;SDS011;4358;42.100;25.222;2023-11-18T06:00:53;0.93;;;0.90;;
8640;SDS011;4358;42.100;25.222;2023-11-18T06:03:20;1.40;;;1.30;;
8640;SDS011;4358;42.100;25.222;2023-11-18T06:05:48;1.13;;;1.10;;
8640;SDS011;4358;42.100;25.222;2023-11-18T06:08:16;1.70;;;1.57;;
8640;SDS011;4358;42.100;25.222;2023-11-18T06:10:43;1.63;;;1.43;;
8640;SDS011;4358;42.100;25.222;2023-11-18T06:13:10;1.63;;;1.53;;
8640;SDS011;4358;42.100;25.222;2023-11-18T06:15:38;1.60;;;1.40;;
8640;SDS011;4358;42.100;25.222;2023-11-18T06:18:05;1.50;;;1.40;;
8640;SDS011;4358;42.100;25.222;2023-11-18T06:20:33;1.90;;;1.67;;
8640;SDS011;4358;42.100;25.222;2023-11-18T06:23:02;2.53;;;2.17;;
8640;SDS011;4358;42.100;25.222;2023-11-18T06:25:29;1.33;;;1.23;;
8640;SDS011;4358;42.100;25.222;2023-11-18T06:27:57;1.60;;;1.43;;
8640;SDS011;4358;42.100;25.222;2023-11-18T06:30:24;2.00;;;1.80;;
8640;SDS011;4358;42.100;25.222;2023-11-18T06:32:51;1.80;;;1.70;;
8640;SDS011;4358;42.100;25.222;2023-11-18T06:35:18;1.63;;;1.53;;
8640;SDS011;4358;42.100;25.222;2023-11-18T06:37:46;2.40;;;1.80;;
8640;SDS011;4358;42.100;25.222;2023-11-18T06:40:15;2.00;;;1.80;;
8640;SDS011;4358;42.100;25.222;2023-11-18T06:42:47;1.73;;;1.43;;
8640;SDS011;4358;42.100;25.222;2023-11-18T06:45:14;1.90;;;1.60;;
8640;SDS011;4358;42.100;25.222;2023-11-18T06:47:41;1.90;;;1.80;;
8640;SDS011;4358;42.100;25.222;2023-11-18T06:50:09;2.43;;;1.70;;
8640;SDS011;4358;42.100;25.222;2023-11-18T06:52:39;1.90;;;1.80;;
8640;SDS011;4358;42.100;25.222;2023-11-18T06:55:07;2.37;;;2.17;;
8640;SDS011;4358;42.100;25.222;2023-11-18T06:57:38;1.83;;;1.50;;
8640;SDS011;4358;42.100;25.222;2023-11-18T07:00:05;2.03;;;1.67;;
8640;SDS011;4358;42.100;25.222;2023-11-18T07:02:34;1.63;;;1.30;;
8640;SDS011;4358;42.100;25.222;2023-11-18T07:05:01;1.67;;;1.57;;
8640;SDS011;4358;42.100;25.222;2023-11-18T07:07:27;2.57;;;1.83;;
8640;SDS011;4358;42.100;25.222;2023-11-18T07:09:54;2.23;;;1.70;;
8640;SDS011;4358;42.100;25.222;2023-11-18T07:12:22;1.80;;;1.57;;
8640;SDS011;4358;42.100;25.222;2023-11-18T07:14:50;2.10;;;1.90;;
8640;SDS011;4358;42.100;25.222;2023-11-18T07:17:17;1.60;;;1.50;;
8640;SDS011;4358;42.100;25.222;2023-11-18T07:19:44;1.60;;;1.50;;
8640;SDS011;4358;42.100;25.222;2023-11-18T07:22:11;1.73;;;1.30;;
8640;SDS011;4358;42.100;25.222;2023-11-18T07:24:38;1.50;;;1.40;;
8640;SDS011;4358;42.100;25.222;2023-11-18T07:27:05;2.00;;;1.63;;
8640;SDS011;4358;42.100;25.222;2023-11-18T07:29:32;1.27;;;1.17;;
8640;SDS011;4358;42.100;25.222;2023-11-18T07:32:02;1.37;;;1.23;;
8640;SDS011;4358;42.100;25.222;2023-11-18T07:34:31;1.23;;;1.17;;
8640;SDS011;4358;42.100;25.222;2023-11-18T07:36:59;1.40;;;1.10;;
8640;SDS011;4358;42.100;25.222;2023-11-18T07:39:27;2.43;;;1.20;;
8640;SDS011;4358;42.100;25.222;2023-11-18T07:42:09;1.43;;;1.33;;
8640;SDS011;4358;42.100;25.222;2023-11-18T07:44:37;1.20;;;1.10;;
8640;SDS011;4358;42.100;25.222;2023-11-18T07:47:06;1.60;;;1.50;;
8640;SDS011;4358;42.100;25.222;2023-11-18T07:49:33;1.53;;;1.43;;
8640;SDS011;4358;42.100;25.222;2023-11-18T07:52:01;1.20;;;1.10;;
8640;SDS011;4358;42.100;25.222;2023-11-18T07:54:28;1.30;;;1.20;;
8640;SDS011;4358;42.100;25.222;2023-11-18T07:56:54;1.30;;;1.20;;
8640;SDS011;4358;42.100;25.222;2023-11-18T07:59:22;1.33;;;1.23;;
8640;SDS011;4358;42.100;25.222;2023-11-18T08:01:49;3.40;;;1.33;;
8640;SDS011;4358;42.100;25.222;2023-11-18T08:04:19;1.10;;;1.00;;
8640;SDS011;4358;42.100;25.222;2023-11-18T08:06:47;1.30;;;1.20;;
8640;SDS011;4358;42.100;25.222;2023-11-18T08:09:14;1.50;;;1.27;;
8640;SDS011;4358;42.100;25.222;2023-11-18T08:11:47;0.83;;;0.83;;
8640;SDS011;4358;42.100;25.222;2023-11-18T08:14:14;3.10;;;0.90;;
8640;SDS011;4358;42.100;25.222;2023-11-18T08:16:42;1.07;;;1.00;;
8640;SDS011;4358;42.100;25.222;2023-11-18T08:19:09;1.53;;;1.00;;
8640;SDS011;4358;42.100;25.222;2023-11-18T08:21:37;0.83;;;0.83;;
8640;SDS011;4358;42.100;25.222;2023-11-18T08:24:05;0.80;;;0.77;;
8640;SDS011;4358;42.100;25.222;2023-11-18T08:26:33;0.70;;;0.70;;
8640;SDS011;4358;42.100;25.222;2023-11-18T08:29:00;0.87;;;0.77;;
8640;SDS011;4358;42.100;25.222;2023-11-18T08:31:27;1.33;;;1.10;;
8640;SDS011;4358;42.100;25.222;2023-11-18T08:33:54;1.33;;;0.80;;
8640;SDS011;4358;42.100;25.222;2023-11-18T08:36:21;3.70;;;0.80;;
8640;SDS011;4358;42.100;25.222;2023-11-18T08:38:54;0.70;;;0.70;;
8640;SDS011;4358;42.100;25.222;2023-11-18T08:41:22;0.70;;;0.70;;
8640;SDS011;4358;42.100;25.222;2023-11-18T08:43:49;0.67;;;0.67;;
8640;SDS011;4358;42.100;25.222;2023-11-18T08:46:17;0.77;;;0.77;;
8640;SDS011;4358;42.100;25.222;2023-11-18T08:48:44;1.00;;;0.60;;
8640;SDS011;4358;42.100;25.222;2023-11-18T08:51:13;2.57;;;0.87;;
8640;SDS011;4358;42.100;25.222;2023-11-18T08:53:41;0.50;;;0.50;;
8640;SDS011;4358;42.100;25.222;2023-11-18T08:56:12;0.50;;;0.50;;
8640;SDS011;4358;42.100;25.222;2023-11-18T08:58:43;0.70;;;0.70;;
8640;SDS011;4358;42.100;25.222;2023-11-18T09:01:10;0.73;;;0.73;;
8640;SDS011;4358;42.100;25.222;2023-11-18T09:03:41;0.90;;;0.80;;
8640;SDS011;4358;42.100;25.222;2023-11-18T09:06:14;0.53;;;0.53;;
8640;SDS011;4358;42.100;25.222;2023-11-18T09:08:50;0.53;;;0.53;;
8640;SDS011;4358;42.100;25.222;2023-11-18T09:11:20;0.60;;;0.60;;
8640;SDS011;4358;42.100;25.222;2023-11-18T09:13:50;0.77;;;0.63;;
8640;SDS011;4358;42.100;25.222;2023-11-18T09:16:19;0.70;;;0.70;;
8640;SDS011;4358;42.100;25.222;2023-11-18T09:18:47;0.83;;;0.80;;
8640;SDS011;4358;42.100;25.222;2023-11-18T09:21:16;0.90;;;0.90;;
8640;SDS011;4358;42.100;25.222;2023-11-18T09:23:48;0.70;;;0.70;;
8640;SDS011;4358;42.100;25.222;2023-11-18T09:26:15;0.93;;;0.80;;
8640;SDS011;4358;42.100;25.222;2023-11-18T09:28:43;1.40;;;0.93;;
8640;SDS011;4358;42.100;25.222;2023-11-18T09:31:10;2.27;;;1.40;;
8640;SDS011;4358;42.100;25.222;2023-11-18T09:33:38;0.83;;;0.80;;
8640;SDS011;4358;42.100;25.222;2023-11-18T09:36:12;1.13;;;1.03;;
8640;SDS011;4358;42.100;25.222;2023-11-18T09:38:39;0.70;;;0.70;;
8640;SDS011;4358;42.100;25.222;2023-11-18T09:41:07;1.83;;;0.80;;
8640;SDS011;4358;42.100;25.222;2023-11-18T09:43:36;0.60;;;0.60;;
8640;SDS011;4358;42.100;25.222;2023-11-18T09:46:10;0.83;;;0.60;;
8640;SDS011;4358;42.100;25.222;2023-11-18T09:48:40;0.73;;;0.63;;
8640;SDS011;4358;42.100;25.222;2023-11-18T09:51:14;0.90;;;0.80;;
8640;SDS011;4358;42.100;25.222;2023-11-18T09:53:46;1.10;;;0.90;;
8640;SDS011;4358;42.100;25.222;2023-11-18T09:56:19;1.37;;;0.90;;
8640;SDS011;4358;42.100;25.222;2023-11-18T09:58:58;1.13;;;0.80;;
8640;SDS011;4358;42.100;25.222;2023-11-18T10:01:35;0.80;;;0.70;;
8640;SDS011;4358;42.100;25.222;2023-11-18T10:04:04;0.60;;;0.60;;
8640;SDS011;4358;42.100;25.222;2023-11-18T10:06:33;0.60;;;0.60;;
8640;SDS011;4358;42.100;25.222;2023-11-18T10:09:02;1.10;;;0.70;;
8640;SDS011;4358;42.100;25.222;2023-11-18T10:11:41;1.30;;;1.00;;
8640;SDS011;4358;42.100;25.222;2023-11-18T10:14:12;2.13;;;0.97;;
8640;SDS011;4358;42.100;25.222;2023-11-18T10:16:42;0.73;;;0.73;;
8640;SDS011;4358;42.100;25.222;2023-11-18T10:19:12;0.63;;;0.63;;
8640;SDS011;4358;42.100;25.222;2023-11-18T10:21:39;1.00;;;0.83;;
8640;SDS011;4358;42.100;25.222;2023-11-18T10:24:06;0.87;;;0.80;;
8640;SDS011;4358;42.100;25.222;2023-11-18T10:26:40;3.77;;;0.73;;
8640;SDS011;4358;42.100;25.222;2023-11-18T10:29:10;1.00;;;0.90;;
8640;SDS011;4358;42.100;25.222;2023-11-18T10:31:39;1.80;;;0.90;;
8640;SDS011;4358;42.100;25.222;2023-11-18T10:34:12;2.53;;;0.70;;
8640;SDS011;4358;42.100;25.222;2023-11-18T10:36:41;1.63;;;1.33;;
8640;SDS011;4358;42.100;25.222;2023-11-18T10:39:27;1.97;;;1.37;;
8640;SDS011;4358;42.100;25.222;2023-11-18T10:41:58;1.10;;;0.87;;
8640;SDS011;4358;42.100;25.222;2023-11-18T10:44:25;1.07;;;0.90;;
8640;SDS011;4358;42.100;25.222;2023-11-18T10:46:52;1.23;;;1.00;;
8640;SDS011;4358;42.100;25.222;2023-11-18T10:49:22;1.00;;;0.90;;
8640;SDS011;4358;42.100;25.222;2023-11-18T10:51:50;1.27;;;0.70;;
8640;SDS011;4358;42.100;25.222;2023-11-18T10:54:17;0.77;;;0.60;;
8640;SDS011;4358;42.100;25.222;2023-11-18T10:56:47;1.73;;;0.77;;
8640;SDS011;4358;42.100;25.222;2023-11-18T10:59:16;0.60;;;0.60;;
8640;SDS011;4358;42.100;25.222;2023-11-18T11:01:43;0.80;;;0.80;;
8640;SDS011;4358;42.100;25.222;2023-11-18T11:04:14;1.00;;;0.90;;
8640;SDS011;4358;42.100;25.222;2023-11-18T11:06:48;0.60;;;0.57;;
8640;SDS011;4358;42.100;25.222;2023-11-18T11:09:18;0.60;;;0.60;;
8640;SDS011;4358;42.100;25.222;2023-11-18T11:11:52;3.03;;;0.80;;
8640;SDS011;4358;42.100;25.222;2023-11-18T11:14:21;0.80;;;0.70;;
8640;SDS011;4358;42.100;25.222;2023-11-18T11:16:55;1.50;;;0.97;;
8640;SDS011;4358;42.100;25.222;2023-11-18T11:19:38;1.10;;;1.00;;
8640;SDS011;4358;42.100;25.222;2023-11-18T11:22:15;2.83;;;1.00;;
8640;SDS011;4358;42.100;25.222;2023-11-18T11:24:49;2.17;;;1.60;;
8640;SDS011;4358;42.100;25.222;2023-11-18T11:27:25;1.20;;;0.80;;
8640;SDS011;4358;42.100;25.222;2023-11-18T11:30:06;1.40;;;1.00;;
8640;SDS011;4358;42.100;25.222;2023-11-18T11:32:39;3.30;;;1.27;;
8640;SDS011;4358;42.100;25.222;2023-11-18T11:35:15;1.43;;;1.27;;
8640;SDS011;4358;42.100;25.222;2023-11-18T11:37:48;1.33;;;0.90;;
8640;SDS011;4358;42.100;25.222;2023-11-18T11:40:16;0.87;;;0.87;;
8640;SDS011;4358;42.100;25.222;2023-11-18T11:42:48;1.00;;;0.90;;
8640;SDS011;4358;42.100;25.222;2023-11-18T11:45:21;0.87;;;0.77;;
8640;SDS011;4358;42.100;25.222;2023-11-18T11:47:53;1.23;;;1.00;;
8640;SDS011;4358;42.100;25.222;2023-11-18T11:50:54;1.13;;;1.00;;
8640;SDS011;4358;42.100;25.222;2023-11-18T11:53:32;2.47;;;1.33;;
8640;SDS011;4358;42.100;25.222;2023-11-18T11:56:04;0.70;;;0.70;;
8640;SDS011;4358;42.100;25.222;2023-11-18T11:58:33;2.33;;;1.00;;
8640;SDS011;4358;42.100;25.222;2023-11-18T12:01:03;0.60;;;0.60;;
8640;SDS011;4358;42.100;25.222;2023-11-18T12:03:45;0.70;;;0.70;;
8640;SDS011;4358;42.100;25.222;2023-11-18T12:06:13;1.13;;;0.90;;
8640;SDS011;4358;42.100;25.222;2023-11-18T12:08:50;2.27;;;0.80;;
8640;SDS011;4358;42.100;25.222;2023-11-18T12:11:18;0.50;;;0.50;;
8640;SDS011;4358;42.100;25.222;2023-11-18T12:13:59;3.90;;;1.10;;
8640;SDS011;4358;42.100;25.222;2023-11-18T12:19:33;1.10;;;1.00;;
8640;SDS011;4358;42.100;25.222;2023-11-18T12:22:13;1.93;;;1.13;;
8640;SDS011;4358;42.100;25.222;2023-11-18T12:28:11;1.53;;;1.07;;
8640;SDS011;4358;42.100;25.222;2023-11-18T12:30:45;1.97;;;0.90;;
8640;SDS011;4358;42.100;25.222;2023-11-18T12:42:57;1.00;;;0.90;;
8640;SDS011;4358;42.100;25.222;2023-11-18T12:45:35;1.53;;;0.93;;
8640;SDS011;4358;42.100;25.222;2023-11-18T12:48:12;0.80;;;0.80;;
8640;SDS011;4358;42.100;25.222;2023-11-18T12:50:41;0.70;;;0.70;;
8640;SDS011;4358;42.100;25.222;2023-11-18T12:53:11;1.30;;;1.00;;
8640;SDS011;4358;42.100;25.222;2023-11-18T12:55:40;0.70;;;0.70;;
8640;SDS011;4358;42.100;25.222;2023-11-18T12:58:09;0.73;;;0.70;;
8640;SDS011;4358;42.100;25.222;2023-11-18T13:00:39;0.83;;;0.80;;
8640;SDS011;4358;42.100;25.222;2023-11-18T13:03:08;0.73;;;0.73;;
8640;SDS011;4358;42.100;25.222;2023-11-18T13:05:36;0.77;;;0.77;;
8640;SDS011;4358;42.100;25.222;2023-11-18T13:08:03;0.80;;;0.70;;
8640;SDS011;4358;42.100;25.222;2023-11-18T13:10:30;0.70;;;0.70;;
8640;SDS011;4358;42.100;25.222;2023-11-18T13:12:58;0.60;;;0.60;;
8640;SDS011;4358;42.100;25.222;2023-11-18T13:15:27;1.53;;;1.20;;
8640;SDS011;4358;42.100;25.222;2023-11-18T13:17:58;0.50;;;0.50;;
8640;SDS011;4358;42.100;25.222;2023-11-18T13:20:26;1.40;;;0.77;;
8640;SDS011;4358;42.100;25.222;2023-11-18T13:22:53;0.70;;;0.60;;
8640;SDS011;4358;42.100;25.222;2023-11-18T13:25:21;3.20;;;1.17;;
8640;SDS011;4358;42.100;25.222;2023-11-18T13:27:49;1.00;;;0.93;;
8640;SDS011;4358;42.100;25.222;2023-11-18T13:30:16;0.80;;;0.80;;
8640;SDS011;4358;42.100;25.222;2023-11-18T13:32:47;0.83;;;0.70;;
8640;SDS011;4358;42.100;25.222;2023-11-18T13:35:16;0.77;;;0.70;;
8640;SDS011;4358;42.100;25.222;2023-11-18T13:37:46;0.70;;;0.70;;
8640;SDS011;4358;42.100;25.222;2023-11-18T13:40:14;0.73;;;0.73;;
8640;SDS011;4358;42.100;25.222;2023-11-18T13:42:43;1.10;;;0.80;;
8640;SDS011;4358;42.100;25.222;2023-11-18T13:45:12;0.70;;;0.70;;
8640;SDS011;4358;42.100;25.222;2023-11-18T13:47:49;0.60;;;0.60;;
8640;SDS011;4358;42.100;25.222;2023-11-18T13:50:18;0.90;;;0.90;;
8640;SDS011;4358;42.100;25.222;2023-11-18T13:52:45;0.50;;;0.50;;
8640;SDS011;4358;42.100;25.222;2023-11-18T13:55:14;0.90;;;0.90;;
8640;SDS011;4358;42.100;25.222;2023-11-18T13:57:51;1.10;;;0.70;;
8640;SDS011;4358;42.100;25.222;2023-11-18T14:00:21;1.00;;;0.80;;
8640;SDS011;4358;42.100;25.222;2023-11-18T14:02:54;0.67;;;0.67;;
8640;SDS011;4358;42.100;25.222;2023-11-18T14:05:22;2.03;;;1.20;;
8640;SDS011;4358;42.100;25.222;2023-11-18T14:07:51;2.37;;;0.90;;
8640;SDS011;4358;42.100;25.222;2023-11-18T14:10:21;0.80;;;0.80;;
8640;SDS011;4358;42.100;25.222;2023-11-18T14:12:59;4.03;;;0.87;;
8640;SDS011;4358;42.100;25.222;2023-11-18T14:15:30;1.57;;;1.30;;
8640;SDS011;4358;42.100;25.222;2023-11-18T14:18:01;1.40;;;1.13;;
8640;SDS011;4358;42.100;25.222;2023-11-18T14:20:29;2.30;;;1.20;;
8640;SDS011;4358;42.100;25.222;2023-11-18T14:22:56;1.23;;;0.90;;
8640;SDS011;4358;42.100;25.222;2023-11-18T14:25:24;0.80;;;0.60;;
8640;SDS011;4358;42.100;25.222;2023-11-18T14:27:52;1.53;;;1.10;;
8640;SDS011;4358;42.100;25.222;2023-11-18T14:30:20;0.70;;;0.70;;
8640;SDS011;4358;42.100;25.222;2023-11-18T14:32:49;1.43;;;1.23;;
8640;SDS011;4358;42.100;25.222;2023-11-18T14:35:18;0.93;;;0.90;;
8640;SDS011;4358;42.100;25.222;2023-11-18T14:37:45;0.63;;;0.63;;
8640;SDS011;4358;42.100;25.222;2023-11-18T14:40:13;1.13;;;1.03;;
8640;SDS011;4358;42.100;25.222;2023-11-18T14:42:41;0.63;;;0.63;;
8640;SDS011;4358;42.100;25.222;2023-11-18T14:45:10;1.80;;;0.90;;
8640;SDS011;4358;42.100;25.222;2023-11-18T14:47:40;1.87;;;1.40;;
8640;SDS011;4358;42.100;25.222;2023-11-18T14:50:10;1.43;;;1.00;;
8640;SDS011;4358;42.100;25.222;2023-11-18T14:52:44;1.30;;;1.20;;
8640;SDS011;4358;42.100;25.222;2023-11-18T14:55:12;7.43;;;1.33;;
8640;SDS011;4358;42.100;25.222;2023-11-18T14:57:39;1.90;;;1.53;;
8640;SDS011;4358;42.100;25.222;2023-11-18T15:00:09;2.73;;;1.10;;
8640;SDS011;4358;42.100;25.222;2023-11-18T15:02:45;1.17;;;1.03;;
8640;SDS011;4358;42.100;25.222;2023-11-18T15:05:14;2.47;;;1.17;;
8640;SDS011;4358;42.100;25.222;2023-11-18T15:07:45;1.27;;;0.97;;
8640;SDS011;4358;42.100;25.222;2023-11-18T15:10:14;1.40;;;1.30;;
8640;SDS011;4358;42.100;25.222;2023-11-18T15:12:45;0.83;;;0.83;;
8640;SDS011;4358;42.100;25.222;2023-11-18T15:15:12;0.70;;;0.70;;
8640;SDS011;4358;42.100;25.222;2023-11-18T15:17:46;1.00;;;0.80;;
8640;SDS011;4358;42.100;25.222;2023-11-18T15:20:15;0.90;;;0.90;;
8640;SDS011;4358;42.100;25.222;2023-11-18T15:22:44;2.00;;;1.33;;
8640;SDS011;4358;42.100;25.222;2023-11-18T15:25:12;2.03;;;1.57;;
8640;SDS011;4358;42.100;25.222;2023-11-18T15:27:41;1.10;;;1.00;;